Time;durP1;ratioP1;P1;durP2;ratioP2;P2;SDS_P1;SDS_P2;PMS_P1;PMS_P2;Temp;Humidity;BMP_temperature;BMP_pressure;BME280_temperature;BME280_humidity;BME280_pressure;Samples;Min_cycle;Max_cycle;Signal;HPM_P1;HPM_P2
2022/04/18 00:02:21;;;;;;;4.40;2.58;;;;;;;;;;4979002;28;20921;-73
2022/04/18 00:04:49;;;;;;;3.47;2.80;;;;;;;;;;4994093;28;20056;-75
2022/04/18 00:07:17;;;;;;;2.92;2.63;;;;;;;;;;4990802;28;20050;-74
2022/04/18 00:09:44;;;;;;;3.05;2.72;;;;;;;;;;4975639;28;20049;-73
2022/04/18 00:12:12;;;;;;;2.38;2.28;;;;;;;;;;4975656;28;20679;-73
2022/04/18 00:14:39;;;;;;;4.10;2.60;;;;;;;;;;4992799;28;20054;-73
2022/04/18 00:17:09;;;;;;;3.60;2.78;;;;;;;;;;4993032;28;20045;-74
2022/04/18 00:19:37;;;;;;;2.72;2.47;;;;;;;;;;4991143;28;20194;-74
2022/04/18 00:22:05;;;;;;;3.33;2.63;;;;;;;;;;4992457;28;20168;-72
2022/04/18 00:24:33;;;;;;;3.80;3.45;;;;;;;;;;4987500;28;20073;-74
2022/04/18 00:27:01;;;;;;;3.20;2.90;;;;;;;;;;4957166;28;20128;-74
2022/04/18 00:29:28;;;;;;;3.13;2.92;;;;;;;;;;4973896;28;20112;-72
2022/04/18 00:31:56;;;;;;;3.75;3.42;;;;;;;;;;4974992;28;20136;-74
2022/04/18 00:34:23;;;;;;;3.45;3.13;;;;;;;;;;4987284;28;20341;-72
2022/04/18 00:36:51;;;;;;;3.28;2.97;;;;;;;;;;4974663;28;20640;-74
2022/04/18 00:39:20;;;;;;;3.28;2.97;;;;;;;;;;4972596;28;20124;-72
2022/04/18 00:41:48;;;;;;;3.03;2.60;;;;;;;;;;4989208;28;20042;-73
2022/04/18 00:44:15;;;;;;;3.53;3.03;;;;;;;;;;4969728;28;20053;-73
2022/04/18 00:46:43;;;;;;;3.83;2.78;;;;;;;;;;4970691;28;20042;-74
2022/04/18 00:49:10;;;;;;;3.05;2.63;;;;;;;;;;4986687;28;20045;-74
2022/04/18 00:51:38;;;;;;;3.45;3.00;;;;;;;;;;4985570;28;20038;-72
2022/04/18 00:54:06;;;;;;;2.88;2.55;;;;;;;;;;4988647;28;20056;-72
2022/04/18 00:56:34;;;;;;;2.97;2.70;;;;;;;;;;4972180;28;20135;-73
2022/04/18 00:59:01;;;;;;;3.30;2.70;;;;;;;;;;4970046;28;20073;-72
2022/04/18 01:01:29;;;;;;;2.92;2.60;;;;;;;;;;4971388;28;20137;-74
2022/04/18 01:03:57;;;;;;;3.00;2.80;;;;;;;;;;4970731;28;20283;-74
2022/04/18 01:06:24;;;;;;;2.85;2.63;;;;;;;;;;4988256;28;20596;-73
2022/04/18 01:08:52;;;;;;;4.35;3.17;;;;;;;;;;4987577;28;20045;-72
2022/04/18 01:11:20;;;;;;;3.30;3.00;;;;;;;;;;4987052;28;20116;-74
2022/04/18 01:14:15;;;;;;;4.05;3.20;;;;;;;;;;4961347;28;20624;-72
2022/04/18 01:17:00;;;;;;;3.13;2.85;;;;;;;;;;4970440;28;20037;-74
2022/04/18 01:19:35;;;;;;;3.25;2.97;;;;;;;;;;4957171;28;20061;-74
2022/04/18 01:22:02;;;;;;;3.30;3.00;;;;;;;;;;4985119;28;20553;-74
2022/04/18 01:30:37;;;;;;;3.13;2.80;;;;;;;;;;4972249;28;20034;-73
2022/04/18 01:33:06;;;;;;;5.30;3.10;;;;;;;;;;4971199;28;20049;-72
2022/04/18 01:35:36;;;;;;;3.05;2.65;;;;;;;;;;4954958;28;20049;-72
2022/04/18 01:38:07;;;;;;;3.75;3.17;;;;;;;;;;4988032;28;20070;-74
2022/04/18 01:40:34;;;;;;;3.50;2.50;;;;;;;;;;4973402;28;20038;-72
2022/04/18 01:43:04;;;;;;;3.00;2.70;;;;;;;;;;4973921;28;20038;-74
2022/04/18 01:45:31;;;;;;;3.15;2.85;;;;;;;;;;4972778;28;20855;-73
2022/04/18 01:48:07;;;;;;;5.30;3.17;;;;;;;;;;4972614;28;20100;-74
2022/04/18 01:50:34;;;;;;;2.80;2.60;;;;;;;;;;4986806;28;20508;-73
2022/04/18 01:53:02;;;;;;;5.70;2.90;;;;;;;;;;4940848;28;20117;-73
2022/04/18 01:55:29;;;;;;;3.10;2.90;;;;;;;;;;4968578;28;20128;-72
2022/04/18 01:57:59;;;;;;;3.28;2.97;;;;;;;;;;4973461;28;20236;-73
2022/04/18 02:00:27;;;;;;;2.90;2.60;;;;;;;;;;4976064;28;20046;-72
2022/04/18 02:02:54;;;;;;;4.82;3.40;;;;;;;;;;4988778;28;20449;-73
2022/04/18 02:05:22;;;;;;;3.20;2.90;;;;;;;;;;4988205;28;20125;-73
2022/04/18 02:07:50;;;;;;;3.47;3.17;;;;;;;;;;4976210;28;20041;-72
2022/04/18 02:10:17;;;;;;;2.95;2.75;;;;;;;;;;4977972;28;20041;-73
2022/04/18 02:12:45;;;;;;;4.38;3.60;;;;;;;;;;4991107;28;20037;-73
2022/04/18 02:15:14;;;;;;;4.65;2.75;;;;;;;;;;4972911;28;20507;-72
2022/04/18 02:17:51;;;;;;;3.92;3.15;;;;;;;;;;4975659;28;20617;-73
2022/04/18 02:20:19;;;;;;;3.42;3.10;;;;;;;;;;4993692;28;20565;-72
2022/04/18 02:22:47;;;;;;;3.35;3.05;;;;;;;;;;4989367;28;20124;-72
2022/04/18 02:25:16;;;;;;;4.35;3.22;;;;;;;;;;4989360;28;20045;-72
2022/04/18 02:27:43;;;;;;;3.35;3.05;;;;;;;;;;4991165;28;20123;-72
2022/04/18 02:30:12;;;;;;;3.72;2.75;;;;;;;;;;4976777;28;20546;-72
2022/04/18 02:32:50;;;;;;;3.85;2.90;;;;;;;;;;4975400;28;20413;-73
2022/04/18 02:35:24;;;;;;;3.70;3.03;;;;;;;;;;4990535;28;20179;-74
2022/04/18 02:37:55;;;;;;;3.22;2.92;;;;;;;;;;4977647;28;20045;-73
2022/04/18 02:40:35;;;;;;;3.00;2.70;;;;;;;;;;4977118;28;20058;-73
2022/04/18 02:43:04;;;;;;;3.33;3.03;;;;;;;;;;4975671;28;20046;-72
2022/04/18 02:45:33;;;;;;;2.90;2.70;;;;;;;;;;4986177;28;20038;-71
2022/04/18 02:48:12;;;;;;;3.22;2.83;;;;;;;;;;4985670;28;20057;-71
2022/04/18 02:50:43;;;;;;;3.90;2.72;;;;;;;;;;4980737;28;20165;-72
2022/04/18 02:53:12;;;;;;;3.17;2.88;;;;;;;;;;4970917;28;20458;-72
2022/04/18 02:55:45;;;;;;;2.92;2.60;;;;;;;;;;4988487;28;20042;-71
2022/04/18 02:58:12;;;;;;;3.13;2.83;;;;;;;;;;4996783;28;20045;-72
2022/04/18 03:00:42;;;;;;;3.42;3.13;;;;;;;;;;4987146;28;20726;-72
2022/04/18 03:03:09;;;;;;;3.60;3.30;;;;;;;;;;4987058;28;20050;-71
2022/04/18 03:05:37;;;;;;;3.55;3.25;;;;;;;;;;4987071;28;20065;-71
2022/04/18 03:08:07;;;;;;;3.47;3.17;;;;;;;;;;4982961;28;20678;-72
2022/04/18 03:13:36;;;;;;;3.92;2.92;;;;;;;;;;4975379;28;20046;-72
2022/04/18 03:16:11;;;;;;;2.80;2.60;;;;;;;;;;4982375;28;20101;-72
2022/04/18 03:18:39;;;;;;;3.10;2.85;;;;;;;;;;4969660;28;20034;-72
2022/04/18 03:21:07;;;;;;;2.83;2.63;;;;;;;;;;4984866;28;20512;-72
2022/04/18 03:23:36;;;;;;;3.30;3.10;;;;;;;;;;4975616;28;20044;-71
2022/04/18 03:26:13;;;;;;;2.90;2.70;;;;;;;;;;4969217;28;20058;-73
2022/04/18 03:28:50;;;;;;;3.28;2.67;;;;;;;;;;4986166;28;20088;-73
2022/04/18 03:31:18;;;;;;;3.60;3.30;;;;;;;;;;4984969;28;20053;-72
2022/04/18 03:33:45;;;;;;;3.40;3.08;;;;;;;;;;4984682;28;20300;-71
2022/04/18 03:41:46;;;;;;;3.83;3.17;;;;;;;;;;4985069;28;20096;-73
2022/04/18 03:44:15;;;;;;;3.30;2.92;;;;;;;;;;5005273;28;20049;-72
2022/04/18 03:46:43;;;;;;;4.05;2.80;;;;;;;;;;4996209;28;20502;-72
2022/04/18 03:49:10;;;;;;;3.35;3.05;;;;;;;;;;5005690;28;20062;-71
2022/04/18 03:51:40;;;;;;;2.72;2.53;;;;;;;;;;4986701;28;20401;-71
2022/04/18 03:54:10;;;;;;;3.25;2.80;;;;;;;;;;4968647;28;20295;-72
2022/04/18 03:56:38;;;;;;;2.72;2.53;;;;;;;;;;4983057;28;20077;-72
2022/04/18 03:59:06;;;;;;;3.20;3.00;;;;;;;;;;5005830;28;20046;-73
2022/04/18 04:01:42;;;;;;;3.10;2.80;;;;;;;;;;4988236;28;20042;-72
2022/04/18 04:04:11;;;;;;;3.70;2.78;;;;;;;;;;4988352;28;20830;-72
2022/04/18 04:06:39;;;;;;;3.15;2.85;;;;;;;;;;4980309;28;20048;-72
2022/04/18 04:09:08;;;;;;;3.55;2.92;;;;;;;;;;4984270;28;20096;-72
2022/04/18 04:11:36;;;;;;;2.58;2.38;;;;;;;;;;4983035;28;20472;-71
2022/04/18 04:14:03;;;;;;;3.90;3.50;;;;;;;;;;4999834;28;20435;-72
2022/04/18 04:16:31;;;;;;;3.08;2.78;;;;;;;;;;4976418;28;20034;-73
2022/04/18 04:19:01;;;;;;;3.33;2.72;;;;;;;;;;4968436;28;20398;-72
2022/04/18 04:21:28;;;;;;;4.68;3.00;;;;;;;;;;4981683;28;20050;-73
2022/04/18 04:23:57;;;;;;;3.70;3.03;;;;;;;;;;4984020;28;20046;-72
2022/04/18 04:26:31;;;;;;;3.35;2.70;;;;;;;;;;4966417;28;20077;-72
2022/04/18 04:29:00;;;;;;;2.72;2.53;;;;;;;;;;4993470;28;20046;-72
2022/04/18 04:32:02;;;;;;;;;;;;;;;;;;4990110;28;20068;-72
2022/04/18 04:34:31;;;;;;;3.85;3.15;;;;;;;;;;4978455;28;19925;-72
2022/04/18 04:37:18;;;;;;;4.15;3.33;;;;;;;;;;4986139;28;20042;-73
2022/04/18 04:39:50;;;;;;;2.92;2.72;;;;;;;;;;4983907;28;20042;-71
2022/04/18 04:42:19;;;;;;;3.97;3.53;;;;;;;;;;4967336;28;20077;-72
2022/04/18 04:44:46;;;;;;;3.40;3.13;;;;;;;;;;4982019;28;20042;-72
2022/04/18 04:47:34;;;;;;;3.10;2.90;;;;;;;;;;4979724;28;20050;-82
2022/04/18 04:50:02;;;;;;;3.78;3.47;;;;;;;;;;4983581;28;20470;-78
2022/04/18 04:52:38;;;;;;;3.85;3.25;;;;;;;;;;5001638;28;20046;-80
2022/04/18 04:55:08;;;;;;;3.28;2.97;;;;;;;;;;4983418;28;20285;-80
2022/04/18 04:57:44;;;;;;;3.72;3.00;;;;;;;;;;4983931;28;20450;-81
2022/04/18 05:00:35;;;;;;;4.75;4.15;;;;;;;;;;4990685;28;20612;-79
2022/04/18 05:03:26;;;;;;;3.78;3.40;;;;;;;;;;4983780;28;20042;-78
2022/04/18 05:05:54;;;;;;;3.15;2.95;;;;;;;;;;4997911;28;20041;-82
2022/04/18 05:08:42;;;;;;;3.80;3.50;;;;;;;;;;4968207;28;20510;-78
2022/04/18 05:11:10;;;;;;;5.95;3.70;;;;;;;;;;4966723;28;20045;-77
2022/04/18 05:13:49;;;;;;;3.47;3.17;;;;;;;;;;4984024;28;20569;-78
2022/04/18 05:16:21;;;;;;;3.47;3.17;;;;;;;;;;4965786;28;20122;-81
2022/04/18 05:18:53;;;;;;;;;;;;;;;;;;5000570;28;20311;-79
2022/04/18 05:21:21;;;;;;;3.42;3.13;;;;;;;;;;4966544;28;20409;-81
2022/04/18 05:23:51;;;;;;;4.03;3.50;;;;;;;;;;4982108;28;20129;-82
2022/04/18 05:26:19;;;;;;;5.03;3.97;;;;;;;;;;4967682;28;20042;-78
2022/04/18 05:28:47;;;;;;;4.63;4.00;;;;;;;;;;4999869;28;20042;-78
2022/04/18 05:31:19;;;;;;;3.50;3.30;;;;;;;;;;4966092;28;20042;-79
2022/04/18 05:33:49;;;;;;;3.55;3.25;;;;;;;;;;4964112;28;20057;-77
2022/04/18 05:36:17;;;;;;;4.45;3.35;;;;;;;;;;4968889;28;20049;-80
2022/04/18 05:38:45;;;;;;;4.38;4.00;;;;;;;;;;5002686;28;20038;-82
2022/04/18 05:41:30;;;;;;;4.35;3.88;;;;;;;;;;4957276;28;20332;-79
2022/04/18 05:43:57;;;;;;;4.40;4.00;;;;;;;;;;4988261;28;20053;-80
2022/04/18 05:46:31;;;;;;;4.07;3.53;;;;;;;;;;4987434;28;20065;-81
2022/04/18 05:48:59;;;;;;;3.70;3.20;;;;;;;;;;4970088;28;20117;-81
2022/04/18 05:51:26;;;;;;;4.75;3.72;;;;;;;;;;4975549;28;20548;-78
2022/04/18 05:53:54;;;;;;;3.55;3.25;;;;;;;;;;4987834;28;20070;-80
2022/04/18 05:56:31;;;;;;;3.80;2.97;;;;;;;;;;4960547;28;20080;-81
2022/04/18 05:59:01;;;;;;;4.15;3.47;;;;;;;;;;4989044;28;20038;-79
2022/04/18 06:01:47;;;;;;;4.28;3.33;;;;;;;;;;4997049;28;20485;-78
2022/04/18 06:04:30;;;;;;;5.32;3.58;;;;;;;;;;4986874;28;20073;-82
2022/04/18 06:07:16;;;;;;;4.68;3.67;;;;;;;;;;4996686;28;20044;-82
2022/04/18 06:09:47;;;;;;;3.92;3.42;;;;;;;;;;4972964;28;20037;-77
2022/04/18 06:12:22;;;;;;;3.42;3.15;;;;;;;;;;4965316;28;20046;-79
2022/04/18 06:14:53;;;;;;;3.58;3.28;;;;;;;;;;4989373;28;20111;-77
2022/04/18 06:17:22;;;;;;;5.03;3.63;;;;;;;;;;4984627;28;20041;-78
2022/04/18 06:19:54;;;;;;;5.03;3.80;;;;;;;;;;4979066;28;20044;-80
2022/04/18 06:22:22;;;;;;;3.65;3.30;;;;;;;;;;4986208;28;20062;-79
2022/04/18 06:24:51;;;;;;;4.20;3.80;;;;;;;;;;4986320;28;20357;-80
2022/04/18 06:27:37;;;;;;;4.80;3.83;;;;;;;;;;4986176;28;20451;-80
2022/04/18 06:30:04;;;;;;;4.95;3.80;;;;;;;;;;4971914;28;20049;-77
2022/04/18 06:32:52;;;;;;;8.88;7.95;;;;;;;;;;4995779;28;20081;-78
2022/04/18 06:35:19;;;;;;;4.90;4.00;;;;;;;;;;4989025;28;20045;-77
2022/04/18 06:37:47;;;;;;;3.78;3.47;;;;;;;;;;4988707;28;20037;-78
2022/04/18 06:40:51;;;;;;;6.30;4.95;;;;;;;;;;4979733;28;20041;-77
2022/04/18 06:43:20;;;;;;;4.20;3.80;;;;;;;;;;4983674;28;20034;-77
2022/04/18 06:45:51;;;;;;;4.22;3.83;;;;;;;;;;4988287;28;20064;-78
2022/04/18 06:48:18;;;;;;;3.72;3.42;;;;;;;;;;4975785;28;20136;-82
2022/04/18 06:51:12;;;;;;;4.03;3.60;;;;;;;;;;4997200;28;20396;-77
2022/04/18 06:54:05;;;;;;;3.55;3.22;;;;;;;;;;4980037;28;20062;-79
2022/04/18 06:57:01;;;;;;;3.47;3.17;;;;;;;;;;4991075;28;20088;-77
2022/04/18 06:59:52;;;;;;;4.20;3.80;;;;;;;;;;4976454;28;20494;-80
2022/04/18 07:02:22;;;;;;;4.18;3.45;;;;;;;;;;4976345;28;20041;-76
2022/04/18 07:04:52;;;;;;;4.07;3.50;;;;;;;;;;4979473;28;20042;-79
2022/04/18 07:07:19;;;;;;;5.07;3.53;;;;;;;;;;4989965;28;20046;-78
2022/04/18 07:09:46;;;;;;;3.67;3.33;;;;;;;;;;4972226;28;20042;-76
2022/04/18 07:12:25;;;;;;;5.50;3.47;;;;;;;;;;4972118;28;20102;-78
2022/04/18 07:14:55;;;;;;;3.75;3.38;;;;;;;;;;4984930;28;20270;-76
2022/04/18 07:17:22;;;;;;;3.92;3.47;;;;;;;;;;4953993;28;20573;-81
2022/04/18 07:19:50;;;;;;;3.80;3.50;;;;;;;;;;4965767;28;20062;-80
2022/04/18 07:22:20;;;;;;;4.47;3.33;;;;;;;;;;4984494;28;20073;-80
2022/04/18 07:24:50;;;;;;;3.80;3.20;;;;;;;;;;4986160;28;20046;-78
2022/04/18 07:27:20;;;;;;;4.30;3.55;;;;;;;;;;4969107;28;20133;-78
2022/04/18 07:29:55;;;;;;;3.83;3.40;;;;;;;;;;4968739;28;20112;-77
2022/04/18 07:32:22;;;;;;;3.83;3.30;;;;;;;;;;4972513;28;20680;-76
2022/04/18 07:34:53;;;;;;;3.97;3.35;;;;;;;;;;4971706;28;20064;-82
2022/04/18 07:37:33;;;;;;;3.85;3.38;;;;;;;;;;4987350;28;20311;-76
2022/04/18 07:40:00;;;;;;;3.70;3.40;;;;;;;;;;4985984;28;20061;-82
2022/04/18 07:42:29;;;;;;;3.53;3.22;;;;;;;;;;4990158;28;20041;-82
2022/04/18 07:44:57;;;;;;;3.50;3.20;;;;;;;;;;4987629;28;20125;-76
2022/04/18 07:47:24;;;;;;;7.38;3.67;;;;;;;;;;4974145;28;20059;-79
2022/04/18 07:49:52;;;;;;;4.63;3.30;;;;;;;;;;4990241;28;20053;-78
2022/04/18 07:52:19;;;;;;;5.35;3.80;;;;;;;;;;4985450;28;20044;-77
2022/04/18 07:54:59;;;;;;;4.90;3.67;;;;;;;;;;4985084;28;20045;-82
2022/04/18 07:57:27;;;;;;;3.95;3.42;;;;;;;;;;4986732;28;20034;-80
2022/04/18 08:00:02;;;;;;;3.60;3.13;;;;;;;;;;4976960;28;20123;-79
2022/04/18 08:02:40;;;;;;;3.83;3.20;;;;;;;;;;4983210;28;20064;-77
2022/04/18 08:05:11;;;;;;;3.45;3.15;;;;;;;;;;5003073;28;20108;-82
2022/04/18 08:07:47;;;;;;;5.88;3.20;;;;;;;;;;4986568;28;20044;-81
2022/04/18 08:10:16;;;;;;;3.75;2.80;;;;;;;;;;4992747;28;20034;-76
2022/04/18 08:12:44;;;;;;;3.20;2.90;;;;;;;;;;4990197;28;20042;-78
2022/04/18 08:15:34;;;;;;;2.97;2.70;;;;;;;;;;4977025;28;20038;-77
2022/04/18 08:18:05;;;;;;;3.45;3.13;;;;;;;;;;4989906;28;20052;-77
2022/04/18 08:20:44;;;;;;;3.10;2.90;;;;;;;;;;4974537;28;20054;-80
2022/04/18 08:23:11;;;;;;;2.80;2.50;;;;;;;;;;4995556;28;20042;-82
2022/04/18 08:26:12;;;;;;;4.05;2.78;;;;;;;;;;4997223;28;20046;-78
2022/04/18 08:28:49;;;;;;;3.17;2.97;;;;;;;;;;4973738;28;20467;-78
2022/04/18 08:31:18;;;;;;;3.83;3.38;;;;;;;;;;4964823;28;20042;-81
2022/04/18 08:33:54;;;;;;;3.38;3.08;;;;;;;;;;4963726;28;20042;-77
2022/04/18 08:36:21;;;;;;;3.30;2.85;;;;;;;;;;4970449;28;20495;-78
2022/04/18 08:38:49;;;;;;;4.68;3.10;;;;;;;;;;4959402;28;20049;-81
2022/04/18 08:41:38;;;;;;;4.13;3.30;;;;;;;;;;4995157;28;20053;-78
2022/04/18 08:44:10;;;;;;;4.32;3.05;;;;;;;;;;4979626;28;20079;-77
2022/04/18 08:46:38;;;;;;;3.72;3.33;;;;;;;;;;4988458;28;20175;-81
2022/04/18 08:52:43;;;;;;;3.13;2.92;;;;;;;;;;4990358;28;20136;-78
2022/04/18 08:55:07;;;;;;;3.40;3.10;;;;;;;;;;4988489;28;20404;-79
2022/04/18 08:57:34;;;;;;;5.85;3.30;;;;;;;;;;4984257;28;20038;-83
2022/04/18 09:00:06;;;;;;;3.50;2.70;;;;;;;;;;4986586;28;20045;-80
2022/04/18 09:02:37;;;;;;;3.88;3.42;;;;;;;;;;4985499;28;20049;-76
2022/04/18 09:05:17;;;;;;;4.43;3.20;;;;;;;;;;4985347;28;20069;-79
2022/04/18 09:07:56;;;;;;;4.45;2.90;;;;;;;;;;4972777;28;20042;-83
2022/04/18 09:10:27;;;;;;;3.90;3.20;;;;;;;;;;4983150;28;20042;-79
2022/04/18 09:13:08;;;;;;;3.63;3.33;;;;;;;;;;4989080;28;20128;-82
2022/04/18 09:15:59;;;;;;;4.13;2.80;;;;;;;;;;4988674;28;20057;-86
2022/04/18 09:18:29;;;;;;;3.80;3.25;;;;;;;;;;4968876;28;20050;-83
2022/04/18 09:21:05;;;;;;;5.47;3.35;;;;;;;;;;4991356;28;20045;-78
2022/04/18 09:23:38;;;;;;;3.20;2.90;;;;;;;;;;4973920;28;20498;-79
2022/04/18 09:26:24;;;;;;;3.80;3.40;;;;;;;;;;4995275;28;20052;-82
2022/04/18 09:29:02;;;;;;;3.35;3.05;;;;;;;;;;4992482;28;20038;-76
2022/04/18 09:31:41;;;;;;;3.70;3.15;;;;;;;;;;5005387;28;20049;-80
2022/04/18 09:34:21;;;;;;;3.45;3.15;;;;;;;;;;4974802;28;20050;-79
2022/04/18 09:37:10;;;;;;;7.75;6.43;;;;;;;;;;4979085;28;20053;-77
2022/04/18 09:39:56;;;;;;;10.15;9.15;;;;;;;;;;4964929;28;20130;-82
2022/04/18 09:42:30;;;;;;;13.63;11.48;;;;;;;;;;4964850;28;20417;-85
2022/04/18 09:45:02;;;;;;;8.90;7.05;;;;;;;;;;4969188;28;20050;-79
2022/04/18 09:47:34;;;;;;;6.10;5.50;;;;;;;;;;4985669;28;20111;-82
2022/04/18 09:53:20;;;;;;;3.00;2.80;;;;;;;;;;4979762;28;20042;-83
2022/04/18 09:55:49;;;;;;;2.90;2.70;;;;;;;;;;4978891;28;20133;-78
2022/04/18 09:58:17;;;;;;;2.45;2.25;;;;;;;;;;4980619;28;20042;-82
2022/04/18 10:01:05;;;;;;;3.17;2.42;;;;;;;;;;4984548;28;20042;-81
2022/04/18 10:03:36;;;;;;;3.03;2.22;;;;;;;;;;4991404;28;20518;-83
2022/04/18 10:06:04;;;;;;;2.83;2.63;;;;;;;;;;4986398;28;20092;-81
2022/04/18 10:08:33;;;;;;;2.50;2.30;;;;;;;;;;5000548;28;20110;-81
2022/04/18 10:11:01;;;;;;;2.15;2.00;;;;;;;;;;4965968;28;20065;-78
2022/04/18 10:13:30;;;;;;;3.30;2.25;;;;;;;;;;4985760;28;20038;-83
2022/04/18 10:15:58;;;;;;;2.45;2.25;;;;;;;;;;5000584;28;20109;-83
2022/04/18 10:18:26;;;;;;;2.95;1.90;;;;;;;;;;4999961;28;20034;-80
2022/04/18 10:21:08;;;;;;;2.38;2.17;;;;;;;;;;4985666;28;20124;-81
2022/04/18 10:24:02;;;;;;;2.45;2.05;;;;;;;;;;4984134;28;20057;-81
2022/04/18 10:26:54;;;;;;;2.13;2.03;;;;;;;;;;4988623;28;20045;-80
2022/04/18 10:29:29;;;;;;;3.42;2.13;;;;;;;;;;4981146;28;20050;-84
2022/04/18 10:32:00;;;;;;;1.77;1.67;;;;;;;;;;4966720;28;20454;-78
2022/04/18 10:34:31;;;;;;;3.22;1.85;;;;;;;;;;4997371;28;20054;-77
2022/04/18 10:37:08;;;;;;;4.28;2.00;;;;;;;;;;4964743;28;20042;-81
2022/04/18 10:39:36;;;;;;;4.00;2.08;;;;;;;;;;4955041;28;20104;-78
2022/04/18 10:42:33;;;;;;;2.70;1.75;;;;;;;;;;4984100;28;20133;-83
2022/04/18 10:45:14;;;;;;;2.35;1.65;;;;;;;;;;4978214;28;20108;-80
2022/04/18 10:47:58;;;;;;;2.20;2.00;;;;;;;;;;4985763;28;20049;-78
2022/04/18 10:50:33;;;;;;;1.80;1.70;;;;;;;;;;4978173;28;20520;-82
2022/04/18 10:53:08;;;;;;;1.92;1.80;;;;;;;;;;4988343;28;20453;-79
2022/04/18 10:55:36;;;;;;;2.78;2.10;;;;;;;;;;4998168;28;20537;-83
2022/04/18 10:58:11;;;;;;;2.22;1.58;;;;;;;;;;4989706;28;20046;-83
2022/04/18 11:00:48;;;;;;;3.00;1.63;;;;;;;;;;4982499;28;20100;-82
2022/04/18 11:03:36;;;;;;;1.70;1.60;;;;;;;;;;4968582;28;20157;-77
2022/04/18 11:06:26;;;;;;;2.10;1.90;;;;;;;;;;4982049;28;20077;-79
2022/04/18 11:09:46;;;;;;;7.65;4.10;;;;;;;;;;4933832;29;20055;-82
2022/04/18 11:15:37;;;;;;;2.67;1.50;;;;;;;;;;4937859;29;20058;-82
2022/04/18 11:18:08;;;;;;;2.30;1.50;;;;;;;;;;4949261;28;20196;-77
2022/04/18 11:20:36;;;;;;;2.00;1.27;;;;;;;;;;4936750;29;20051;-81
2022/04/18 11:23:22;;;;;;;1.27;1.17;;;;;;;;;;4924084;29;20055;-78
2022/04/18 11:25:54;;;;;;;1.98;1.80;;;;;;;;;;4932988;29;20055;-78
2022/04/18 11:28:21;;;;;;;1.50;1.40;;;;;;;;;;4942206;29;20047;-81
2022/04/18 11:30:49;;;;;;;1.70;1.60;;;;;;;;;;4920918;29;20051;-80
2022/04/18 11:33:22;;;;;;;1.60;1.40;;;;;;;;;;4929627;28;20047;-81
2022/04/18 11:35:50;;;;;;;1.55;1.45;;;;;;;;;;4932320;28;20662;-81
2022/04/18 11:38:17;;;;;;;1.45;1.35;;;;;;;;;;4931051;29;20845;-78
2022/04/18 11:40:45;;;;;;;1.95;1.50;;;;;;;;;;4965922;28;20140;-81
2022/04/18 11:43:17;;;;;;;1.55;1.40;;;;;;;;;;4975185;28;20050;-82
2022/04/18 11:45:44;;;;;;;2.45;1.50;;;;;;;;;;4974854;28;20045;-81
2022/04/18 11:48:12;;;;;;;1.77;1.67;;;;;;;;;;4991970;28;20768;-80
2022/04/18 11:50:43;;;;;;;3.83;1.70;;;;;;;;;;4976904;28;20062;-83
2022/04/18 11:53:17;;;;;;;1.38;1.27;;;;;;;;;;4991643;28;20896;-79
2022/04/18 11:55:46;;;;;;;2.05;1.50;;;;;;;;;;4957656;28;20057;-84
2022/04/18 11:58:19;;;;;;;1.48;1.38;;;;;;;;;;4974506;28;20042;-83
2022/04/18 12:09:10;;;;;;;1.60;1.50;;;;;;;;;;4994880;28;20581;-83
2022/04/18 12:11:38;;;;;;;1.63;1.52;;;;;;;;;;4994878;28;20042;-82
2022/04/18 12:14:10;;;;;;;2.47;1.50;;;;;;;;;;4993139;28;20379;-82
2022/04/18 12:16:38;;;;;;;1.33;1.33;;;;;;;;;;4995686;28;20049;-83
2022/04/18 12:19:07;;;;;;;1.60;1.50;;;;;;;;;;4996039;28;20038;-82
2022/04/18 12:21:34;;;;;;;1.33;1.23;;;;;;;;;;4964859;28;20069;-79
2022/04/18 12:24:02;;;;;;;2.63;1.83;;;;;;;;;;4992565;28;20046;-80
2022/04/18 12:26:35;;;;;;;1.50;1.40;;;;;;;;;;4991631;28;20046;-80
2022/04/18 12:29:09;;;;;;;2.13;1.60;;;;;;;;;;4988819;28;20060;-80
2022/04/18 12:31:40;;;;;;;1.58;1.48;;;;;;;;;;4991747;28;20078;-81
2022/04/18 12:34:16;;;;;;;1.50;1.40;;;;;;;;;;4974814;28;20587;-81
2022/04/18 12:36:43;;;;;;;1.60;1.50;;;;;;;;;;4973873;28;20038;-79
2022/04/18 12:39:21;;;;;;;1.95;1.70;;;;;;;;;;4973902;28;20588;-80
2022/04/18 12:41:49;;;;;;;1.77;1.40;;;;;;;;;;4990710;28;20046;-80
2022/04/18 12:44:17;;;;;;;1.40;1.30;;;;;;;;;;4993714;28;20038;-81
2022/04/18 12:46:44;;;;;;;2.45;1.60;;;;;;;;;;4974883;28;20438;-81
2022/04/18 12:49:12;;;;;;;6.72;1.75;;;;;;;;;;4978824;28;20049;-82
2022/04/18 12:51:42;;;;;;;1.60;1.45;;;;;;;;;;4978036;28;20608;-80
2022/04/18 12:54:20;;;;;;;3.85;1.60;;;;;;;;;;4975035;28;20069;-78
2022/04/18 12:56:48;;;;;;;1.40;1.17;;;;;;;;;;4992495;28;20057;-82
2022/04/18 12:59:30;;;;;;;1.48;1.27;;;;;;;;;;4990811;28;20041;-80
2022/04/18 13:02:07;;;;;;;1.30;1.30;;;;;;;;;;4991148;28;20045;-83
2022/04/18 13:04:39;;;;;;;2.13;1.25;;;;;;;;;;4974939;28;20048;-78
2022/04/18 13:07:08;;;;;;;3.20;1.50;;;;;;;;;;4993846;28;20474;-77
2022/04/18 13:09:36;;;;;;;1.65;1.27;;;;;;;;;;4974827;28;20158;-80
2022/04/18 13:12:07;;;;;;;1.50;1.30;;;;;;;;;;4993213;28;20858;-81
2022/04/18 13:14:37;;;;;;;2.72;1.42;;;;;;;;;;4962990;28;20184;-83
2022/04/18 13:17:09;;;;;;;1.45;1.35;;;;;;;;;;4975772;28;20065;-79
2022/04/18 13:19:36;;;;;;;;;;;;;;;;;;4995348;28;20733;-82
2022/04/18 13:22:04;;;;;;;1.50;1.35;;;;;;;;;;4979243;28;20417;-80
2022/04/18 13:24:32;;;;;;;2.33;1.60;;;;;;;;;;4974421;28;20164;-82
2022/04/18 13:26:59;;;;;;;1.40;1.30;;;;;;;;;;4961903;28;20593;-79
2022/04/18 13:29:27;;;;;;;3.03;1.45;;;;;;;;;;4977373;28;20041;-91
2022/04/18 13:32:09;;;;;;;1.40;1.30;;;;;;;;;;4965555;28;20069;-78
2022/04/18 13:34:37;;;;;;;1.75;1.65;;;;;;;;;;4994652;28;20140;-82
2022/04/18 13:37:04;;;;;;;1.40;1.20;;;;;;;;;;4994740;28;20406;-84
2022/04/18 13:39:31;;;;;;;1.35;1.27;;;;;;;;;;4994383;28;20045;-80
2022/04/18 13:41:59;;;;;;;1.38;1.30;;;;;;;;;;4974475;28;20458;-83
2022/04/18 13:44:26;;;;;;;1.50;1.30;;;;;;;;;;4977229;28;20038;-79
2022/04/18 13:46:54;;;;;;;2.47;1.33;;;;;;;;;;4976988;28;20041;-82
2022/04/18 13:49:21;;;;;;;1.67;1.20;;;;;;;;;;4974275;28;20526;-82
2022/04/18 13:51:49;;;;;;;1.27;1.27;;;;;;;;;;4971800;28;20049;-83
2022/04/18 13:54:16;;;;;;;1.17;1.10;;;;;;;;;;4985800;28;20108;-80
2022/04/18 13:56:46;;;;;;;1.20;1.20;;;;;;;;;;4989006;28;20038;-80
2022/04/18 13:59:14;;;;;;;1.88;1.48;;;;;;;;;;4979615;28;20492;-81
2022/04/18 14:01:43;;;;;;;1.25;1.15;;;;;;;;;;4980439;28;20045;-81
2022/04/18 14:04:10;;;;;;;1.80;1.45;;;;;;;;;;4964037;28;20061;-84
2022/04/18 14:06:39;;;;;;;3.17;2.97;;;;;;;;;;4997057;28;20052;-83
2022/04/18 14:09:08;;;;;;;1.65;1.50;;;;;;;;;;4979422;28;20456;-83
2022/04/18 14:11:35;;;;;;;1.33;1.23;;;;;;;;;;4979900;28;20128;-79
2022/04/18 14:14:10;;;;;;;1.52;1.40;;;;;;;;;;4981782;28;20104;-84
2022/04/18 14:22:09;;;;;;;1.38;1.25;;;;;;;;;;4998737;28;20061;-80
2022/04/18 14:24:36;;;;;;;1.42;1.10;;;;;;;;;;4982188;28;20051;-78
2022/04/18 14:27:04;;;;;;;1.50;1.40;;;;;;;;;;5005572;28;20053;-84
2022/04/18 14:29:34;;;;;;;2.30;1.50;;;;;;;;;;5004127;28;20049;-82
2022/04/18 14:32:01;;;;;;;4.65;1.30;;;;;;;;;;4993898;28;20048;-84
2022/04/18 14:34:28;;;;;;;1.40;1.30;;;;;;;;;;4964052;28;21374;-80
2022/04/18 14:36:57;;;;;;;1.95;1.30;;;;;;;;;;4994618;28;20132;-81
2022/04/18 14:39:24;;;;;;;1.60;1.50;;;;;;;;;;4976055;28;20069;-81
2022/04/18 14:41:52;;;;;;;1.30;1.20;;;;;;;;;;4978221;28;20058;-80
2022/04/18 14:44:19;;;;;;;2.15;1.48;;;;;;;;;;4980594;28;20049;-83
2022/04/18 14:46:46;;;;;;;2.05;1.48;;;;;;;;;;4992604;28;20030;-80
2022/04/18 14:49:14;;;;;;;1.50;1.40;;;;;;;;;;4997688;28;20061;-84
2022/04/18 14:51:41;;;;;;;1.67;1.58;;;;;;;;;;4981198;28;20123;-81
2022/04/18 14:54:09;;;;;;;1.65;1.52;;;;;;;;;;4995670;28;20096;-84
2022/04/18 14:56:36;;;;;;;1.50;1.40;;;;;;;;;;4979900;28;20204;-78
2022/04/18 14:59:10;;;;;;;10.32;8.57;;;;;;;;;;4997234;28;20066;-81
2022/04/18 15:01:37;;;;;;;2.28;2.00;;;;;;;;;;4978922;28;20041;-81
2022/04/18 15:04:05;;;;;;;2.22;1.20;;;;;;;;;;4976288;28;20557;-80
2022/04/18 15:06:32;;;;;;;1.17;1.17;;;;;;;;;;4994242;28;20042;-78
2022/04/18 15:09:00;;;;;;;1.50;1.40;;;;;;;;;;4994568;28;20042;-82
2022/04/18 15:11:27;;;;;;;10.88;5.05;;;;;;;;;;4992387;28;20116;-81
2022/04/18 15:13:55;;;;;;;1.63;1.52;;;;;;;;;;4995088;28;20498;-82
2022/04/18 15:16:22;;;;;;;1.50;1.40;;;;;;;;;;4992639;28;20163;-80
2022/04/18 15:18:50;;;;;;;1.80;1.70;;;;;;;;;;4961999;28;20125;-83
2022/04/18 15:21:17;;;;;;;1.50;1.40;;;;;;;;;;4992382;28;20073;-83
2022/04/18 15:23:45;;;;;;;1.20;1.20;;;;;;;;;;4990531;28;20132;-83
2022/04/18 15:26:12;;;;;;;1.23;1.13;;;;;;;;;;4989663;28;20097;-81
2022/04/18 15:28:40;;;;;;;1.98;1.50;;;;;;;;;;4989970;28;20086;-82
2022/04/18 15:34:01;;;;;;;1.45;1.35;;;;;;;;;;4994548;28;20057;-80
2022/04/18 15:36:28;;;;;;;1.33;1.30;;;;;;;;;;4964310;28;20426;-81
2022/04/18 15:38:55;;;;;;;1.52;1.42;;;;;;;;;;4975891;28;20074;-83
2022/04/18 15:41:23;;;;;;;1.55;1.45;;;;;;;;;;4995992;28;20085;-78
2022/04/18 15:43:50;;;;;;;2.10;1.90;;;;;;;;;;4993599;28;20050;-80
2022/04/18 15:46:18;;;;;;;1.38;1.27;;;;;;;;;;4994460;28;20157;-83
2022/04/18 15:48:45;;;;;;;1.50;1.40;;;;;;;;;;4991503;28;20100;-77
2022/04/18 15:51:13;;;;;;;2.42;1.20;;;;;;;;;;4995450;28;20052;-83
2022/04/18 15:53:40;;;;;;;1.55;1.30;;;;;;;;;;4989105;28;20116;-80